sensor_id;sensor_type;location;lat;lon;timestamp;P1;durP1;ratioP1;P2;durP2;ratioP2
63050;SDS011;49136;47.416;19.402;2023-05-10T00:01:45;8.30;;;3.65;;
63050;SDS011;49136;47.416;19.402;2023-05-10T00:04:11;11.70;;;6.13;;
63050;SDS011;49136;47.416;19.402;2023-05-10T00:06:36;12.18;;;4.78;;
63050;SDS011;49136;47.416;19.402;2023-05-10T00:09:02;8.68;;;4.53;;
63050;SDS011;49136;47.416;19.402;2023-05-10T00:11:28;11.93;;;4.80;;
63050;SDS011;49136;47.416;19.402;2023-05-10T00:13:53;11.60;;;5.40;;
63050;SDS011;49136;47.416;19.402;2023-05-10T00:16:19;11.10;;;5.03;;
63050;SDS011;49136;47.416;19.402;2023-05-10T00:18:44;11.57;;;4.82;;
63050;SDS011;49136;47.416;19.402;2023-05-10T00:21:10;12.20;;;4.85;;
63050;SDS011;49136;47.416;19.402;2023-05-10T00:23:35;11.02;;;4.40;;
63050;SDS011;49136;47.416;19.402;2023-05-10T00:26:01;13.90;;;5.20;;
63050;SDS011;49136;47.416;19.402;2023-05-10T00:28:27;11.27;;;5.45;;
63050;SDS011;49136;47.416;19.402;2023-05-10T00:30:53;15.40;;;5.43;;
63050;SDS011;49136;47.416;19.402;2023-05-10T00:33:19;9.88;;;4.70;;
63050;SDS011;49136;47.416;19.402;2023-05-10T00:35:44;10.60;;;4.82;;
63050;SDS011;49136;47.416;19.402;2023-05-10T00:38:10;7.20;;;4.22;;
63050;SDS011;49136;47.416;19.402;2023-05-10T00:40:36;8.07;;;3.60;;
63050;SDS011;49136;47.416;19.402;2023-05-10T00:43:02;9.35;;;4.18;;
63050;SDS011;49136;47.416;19.402;2023-05-10T00:45:28;6.80;;;4.00;;
63050;SDS011;49136;47.416;19.402;2023-05-10T00:47:56;10.38;;;4.68;;
63050;SDS011;49136;47.416;19.402;2023-05-10T00:50:22;12.57;;;4.85;;
63050;SDS011;49136;47.416;19.402;2023-05-10T00:52:48;10.52;;;5.38;;
63050;SDS011;49136;47.416;19.402;2023-05-10T00:55:14;11.70;;;4.68;;
63050;SDS011;49136;47.416;19.402;2023-05-10T00:57:39;14.40;;;5.30;;
63050;SDS011;49136;47.416;19.402;2023-05-10T01:00:06;14.48;;;5.18;;
63050;SDS011;49136;47.416;19.402;2023-05-10T01:02:33;16.45;;;5.07;;
63050;SDS011;49136;47.416;19.402;2023-05-10T01:04:59;19.63;;;5.22;;
63050;SDS011;49136;47.416;19.402;2023-05-10T01:07:25;9.48;;;5.00;;
63050;SDS011;49136;47.416;19.402;2023-05-10T01:09:50;13.52;;;5.40;;
63050;SDS011;49136;47.416;19.402;2023-05-10T01:12:16;15.95;;;4.70;;
63050;SDS011;49136;47.416;19.402;2023-05-10T01:14:41;15.38;;;5.03;;
63050;SDS011;49136;47.416;19.402;2023-05-10T01:17:07;14.98;;;4.82;;
63050;SDS011;49136;47.416;19.402;2023-05-10T01:19:34;20.30;;;5.80;;
63050;SDS011;49136;47.416;19.402;2023-05-10T01:27:50;10.68;;;4.85;;
63050;SDS011;49136;47.416;19.402;2023-05-10T01:33:27;9.65;;;4.35;;
63050;SDS011;49136;47.416;19.402;2023-05-10T01:42:08;11.00;;;5.25;;
63050;SDS011;49136;47.416;19.402;2023-05-10T01:48:01;17.40;;;5.45;;
63050;SDS011;49136;47.416;19.402;2023-05-10T01:50:31;10.75;;;6.18;;
63050;SDS011;49136;47.416;19.402;2023-05-10T01:52:58;18.55;;;6.05;;
63050;SDS011;49136;47.416;19.402;2023-05-10T01:55:26;15.80;;;6.57;;
63050;SDS011;49136;47.416;19.402;2023-05-10T01:58:05;16.42;;;7.05;;
63050;SDS011;49136;47.416;19.402;2023-05-10T02:00:34;14.85;;;6.85;;
63050;SDS011;49136;47.416;19.402;2023-05-10T02:03:01;15.63;;;6.57;;
63050;SDS011;49136;47.416;19.402;2023-05-10T02:05:30;15.20;;;6.65;;
63050;SDS011;49136;47.416;19.402;2023-05-10T02:07:58;18.38;;;6.93;;
63050;SDS011;49136;47.416;19.402;2023-05-10T02:10:26;16.17;;;6.82;;
63050;SDS011;49136;47.416;19.402;2023-05-10T02:12:53;14.68;;;7.00;;
63050;SDS011;49136;47.416;19.402;2023-05-10T02:15:22;16.30;;;6.75;;
63050;SDS011;49136;47.416;19.402;2023-05-10T02:17:49;16.60;;;6.88;;
63050;SDS011;49136;47.416;19.402;2023-05-10T02:20:17;15.00;;;6.65;;
63050;SDS011;49136;47.416;19.402;2023-05-10T02:22:44;21.55;;;9.07;;
63050;SDS011;49136;47.416;19.402;2023-05-10T02:25:12;18.83;;;6.55;;
63050;SDS011;49136;47.416;19.402;2023-05-10T02:27:38;16.42;;;7.30;;
63050;SDS011;49136;47.416;19.402;2023-05-10T02:30:06;15.07;;;6.90;;
63050;SDS011;49136;47.416;19.402;2023-05-10T02:32:33;12.88;;;6.05;;
63050;SDS011;49136;47.416;19.402;2023-05-10T02:35:00;15.75;;;7.60;;
63050;SDS011;49136;47.416;19.402;2023-05-10T02:37:27;13.07;;;6.82;;
63050;SDS011;49136;47.416;19.402;2023-05-10T02:39:54;15.77;;;6.93;;
63050;SDS011;49136;47.416;19.402;2023-05-10T02:42:22;9.85;;;5.60;;
63050;SDS011;49136;47.416;19.402;2023-05-10T02:44:51;17.67;;;6.38;;
63050;SDS011;49136;47.416;19.402;2023-05-10T02:47:19;14.30;;;6.22;;
63050;SDS011;49136;47.416;19.402;2023-05-10T02:49:45;16.35;;;6.75;;
63050;SDS011;49136;47.416;19.402;2023-05-10T02:52:11;15.70;;;7.03;;
63050;SDS011;49136;47.416;19.402;2023-05-10T02:54:50;14.75;;;6.68;;
63050;SDS011;49136;47.416;19.402;2023-05-10T02:57:22;13.02;;;5.75;;
63050;SDS011;49136;47.416;19.402;2023-05-10T02:59:52;15.60;;;6.65;;
63050;SDS011;49136;47.416;19.402;2023-05-10T03:02:18;17.67;;;7.20;;
63050;SDS011;49136;47.416;19.402;2023-05-10T03:04:43;16.27;;;6.82;;
63050;SDS011;49136;47.416;19.402;2023-05-10T03:07:09;13.98;;;6.45;;
63050;SDS011;49136;47.416;19.402;2023-05-10T03:09:35;13.73;;;6.90;;
63050;SDS011;49136;47.416;19.402;2023-05-10T03:12:02;18.35;;;7.55;;
63050;SDS011;49136;47.416;19.402;2023-05-10T03:15:01;12.38;;;5.68;;
63050;SDS011;49136;47.416;19.402;2023-05-10T03:20:35;16.02;;;6.80;;
63050;SDS011;49136;47.416;19.402;2023-05-10T03:23:07;12.27;;;6.28;;
63050;SDS011;49136;47.416;19.402;2023-05-10T03:25:38;18.17;;;6.30;;
63050;SDS011;49136;47.416;19.402;2023-05-10T03:28:06;21.48;;;7.10;;
63050;SDS011;49136;47.416;19.402;2023-05-10T03:30:33;23.13;;;7.40;;
63050;SDS011;49136;47.416;19.402;2023-05-10T03:33:03;16.25;;;7.78;;
63050;SDS011;49136;47.416;19.402;2023-05-10T03:35:30;14.25;;;7.10;;
63050;SDS011;49136;47.416;19.402;2023-05-10T03:37:56;17.00;;;7.28;;
63050;SDS011;49136;47.416;19.402;2023-05-10T03:40:21;17.73;;;8.23;;
63050;SDS011;49136;47.416;19.402;2023-05-10T03:42:48;21.40;;;8.02;;
63050;SDS011;49136;47.416;19.402;2023-05-10T03:45:13;15.68;;;7.05;;
63050;SDS011;49136;47.416;19.402;2023-05-10T03:47:38;15.80;;;8.00;;
63050;SDS011;49136;47.416;19.402;2023-05-10T03:50:04;15.18;;;7.45;;
63050;SDS011;49136;47.416;19.402;2023-05-10T03:52:30;18.70;;;9.13;;
63050;SDS011;49136;47.416;19.402;2023-05-10T03:54:55;24.35;;;9.13;;
63050;SDS011;49136;47.416;19.402;2023-05-10T03:57:21;14.93;;;6.78;;
63050;SDS011;49136;47.416;19.402;2023-05-10T03:59:46;14.07;;;6.65;;
63050;SDS011;49136;47.416;19.402;2023-05-10T04:02:12;16.98;;;7.32;;
63050;SDS011;49136;47.416;19.402;2023-05-10T04:04:37;17.80;;;7.00;;
63050;SDS011;49136;47.416;19.402;2023-05-10T04:07:03;16.95;;;7.80;;
63050;SDS011;49136;47.416;19.402;2023-05-10T04:09:28;15.63;;;6.90;;
63050;SDS011;49136;47.416;19.402;2023-05-10T04:11:53;25.52;;;7.53;;
63050;SDS011;49136;47.416;19.402;2023-05-10T04:14:19;22.95;;;10.52;;
63050;SDS011;49136;47.416;19.402;2023-05-10T04:16:44;12.57;;;6.18;;
63050;SDS011;49136;47.416;19.402;2023-05-10T04:19:09;14.15;;;7.32;;
63050;SDS011;49136;47.416;19.402;2023-05-10T04:21:35;24.02;;;8.88;;
63050;SDS011;49136;47.416;19.402;2023-05-10T04:24:01;19.25;;;8.40;;
63050;SDS011;49136;47.416;19.402;2023-05-10T04:26:26;21.17;;;9.43;;
63050;SDS011;49136;47.416;19.402;2023-05-10T04:28:52;20.83;;;7.40;;
63050;SDS011;49136;47.416;19.402;2023-05-10T04:31:18;28.00;;;8.05;;
63050;SDS011;49136;47.416;19.402;2023-05-10T04:33:43;16.42;;;6.72;;
63050;SDS011;49136;47.416;19.402;2023-05-10T04:36:08;18.15;;;7.43;;
63050;SDS011;49136;47.416;19.402;2023-05-10T04:38:34;16.73;;;8.07;;
63050;SDS011;49136;47.416;19.402;2023-05-10T04:41:06;15.27;;;6.95;;
63050;SDS011;49136;47.416;19.402;2023-05-10T04:43:33;18.08;;;8.52;;
63050;SDS011;49136;47.416;19.402;2023-05-10T04:45:58;21.40;;;9.13;;
63050;SDS011;49136;47.416;19.402;2023-05-10T04:48:23;19.80;;;9.48;;
63050;SDS011;49136;47.416;19.402;2023-05-10T04:50:49;17.30;;;7.78;;
63050;SDS011;49136;47.416;19.402;2023-05-10T04:53:14;20.30;;;7.70;;
63050;SDS011;49136;47.416;19.402;2023-05-10T04:55:40;16.27;;;7.97;;
63050;SDS011;49136;47.416;19.402;2023-05-10T04:58:05;16.88;;;7.82;;
63050;SDS011;49136;47.416;19.402;2023-05-10T05:00:31;12.85;;;6.72;;
63050;SDS011;49136;47.416;19.402;2023-05-10T05:02:56;22.10;;;9.77;;
63050;SDS011;49136;47.416;19.402;2023-05-10T05:05:22;20.38;;;8.10;;
63050;SDS011;49136;47.416;19.402;2023-05-10T05:07:47;20.17;;;7.93;;
63050;SDS011;49136;47.416;19.402;2023-05-10T05:10:13;16.63;;;7.57;;
63050;SDS011;49136;47.416;19.402;2023-05-10T05:12:38;17.48;;;8.77;;
63050;SDS011;49136;47.416;19.402;2023-05-10T05:15:04;20.50;;;8.20;;
63050;SDS011;49136;47.416;19.402;2023-05-10T05:17:30;15.32;;;7.78;;
63050;SDS011;49136;47.416;19.402;2023-05-10T05:19:56;20.58;;;8.15;;
63050;SDS011;49136;47.416;19.402;2023-05-10T05:22:21;18.23;;;8.55;;
63050;SDS011;49136;47.416;19.402;2023-05-10T05:24:55;18.08;;;7.72;;
63050;SDS011;49136;47.416;19.402;2023-05-10T05:27:23;20.00;;;7.47;;
63050;SDS011;49136;47.416;19.402;2023-05-10T05:29:54;17.42;;;7.07;;
63050;SDS011;49136;47.416;19.402;2023-05-10T05:32:20;17.40;;;7.22;;
63050;SDS011;49136;47.416;19.402;2023-05-10T05:34:46;17.48;;;7.68;;
63050;SDS011;49136;47.416;19.402;2023-05-10T05:37:13;16.52;;;7.85;;
63050;SDS011;49136;47.416;19.402;2023-05-10T05:39:42;16.80;;;7.90;;
63050;SDS011;49136;47.416;19.402;2023-05-10T05:42:09;19.73;;;8.32;;
63050;SDS011;49136;47.416;19.402;2023-05-10T05:44:35;19.27;;;9.38;;
63050;SDS011;49136;47.416;19.402;2023-05-10T05:47:00;15.35;;;7.28;;
63050;SDS011;49136;47.416;19.402;2023-05-10T05:49:25;18.55;;;6.90;;
63050;SDS011;49136;47.416;19.402;2023-05-10T05:51:51;15.65;;;8.05;;
63050;SDS011;49136;47.416;19.402;2023-05-10T05:54:16;14.43;;;7.68;;
63050;SDS011;49136;47.416;19.402;2023-05-10T05:56:42;20.42;;;7.20;;
63050;SDS011;49136;47.416;19.402;2023-05-10T05:59:09;15.23;;;6.57;;
63050;SDS011;49136;47.416;19.402;2023-05-10T06:01:34;11.88;;;6.50;;
63050;SDS011;49136;47.416;19.402;2023-05-10T06:04:00;15.82;;;6.82;;
63050;SDS011;49136;47.416;19.402;2023-05-10T06:06:25;11.77;;;6.43;;
63050;SDS011;49136;47.416;19.402;2023-05-10T06:08:51;13.10;;;6.70;;
63050;SDS011;49136;47.416;19.402;2023-05-10T06:11:17;14.38;;;6.88;;
63050;SDS011;49136;47.416;19.402;2023-05-10T06:13:42;11.90;;;6.10;;
63050;SDS011;49136;47.416;19.402;2023-05-10T06:16:08;12.10;;;6.25;;
63050;SDS011;49136;47.416;19.402;2023-05-10T06:18:33;15.93;;;6.18;;
63050;SDS011;49136;47.416;19.402;2023-05-10T06:20:59;11.10;;;6.07;;
63050;SDS011;49136;47.416;19.402;2023-05-10T06:23:25;12.05;;;6.45;;
63050;SDS011;49136;47.416;19.402;2023-05-10T06:25:51;14.52;;;6.82;;
63050;SDS011;49136;47.416;19.402;2023-05-10T06:28:17;14.00;;;8.23;;
63050;SDS011;49136;47.416;19.402;2023-05-10T06:30:42;12.52;;;6.75;;
63050;SDS011;49136;47.416;19.402;2023-05-10T06:33:08;18.70;;;7.78;;
63050;SDS011;49136;47.416;19.402;2023-05-10T06:35:33;14.65;;;6.90;;
63050;SDS011;49136;47.416;19.402;2023-05-10T06:37:59;11.98;;;6.63;;
63050;SDS011;49136;47.416;19.402;2023-05-10T06:40:24;12.73;;;6.80;;
63050;SDS011;49136;47.416;19.402;2023-05-10T06:42:50;12.75;;;6.75;;
63050;SDS011;49136;47.416;19.402;2023-05-10T06:45:16;9.43;;;6.28;;
63050;SDS011;49136;47.416;19.402;2023-05-10T06:47:42;18.58;;;6.38;;
63050;SDS011;49136;47.416;19.402;2023-05-10T06:50:08;12.18;;;6.63;;
63050;SDS011;49136;47.416;19.402;2023-05-10T06:52:34;14.88;;;7.40;;
63050;SDS011;49136;47.416;19.402;2023-05-10T06:55:00;11.23;;;6.32;;
63050;SDS011;49136;47.416;19.402;2023-05-10T06:57:25;10.80;;;5.95;;
63050;SDS011;49136;47.416;19.402;2023-05-10T06:59:51;14.07;;;7.00;;
63050;SDS011;49136;47.416;19.402;2023-05-10T07:02:17;15.70;;;7.10;;
63050;SDS011;49136;47.416;19.402;2023-05-10T07:04:42;18.67;;;7.55;;
63050;SDS011;49136;47.416;19.402;2023-05-10T07:07:07;25.45;;;7.30;;
63050;SDS011;49136;47.416;19.402;2023-05-10T07:09:33;10.55;;;5.55;;
63050;SDS011;49136;47.416;19.402;2023-05-10T07:11:59;13.45;;;5.15;;
63050;SDS011;49136;47.416;19.402;2023-05-10T07:14:24;11.25;;;6.18;;
63050;SDS011;49136;47.416;19.402;2023-05-10T07:16:50;16.88;;;9.35;;
63050;SDS011;49136;47.416;19.402;2023-05-10T07:19:15;14.32;;;6.55;;
63050;SDS011;49136;47.416;19.402;2023-05-10T07:21:40;9.75;;;5.53;;
63050;SDS011;49136;47.416;19.402;2023-05-10T07:24:08;11.75;;;6.63;;
63050;SDS011;49136;47.416;19.402;2023-05-10T07:26:33;12.52;;;6.68;;
63050;SDS011;49136;47.416;19.402;2023-05-10T07:28:59;10.50;;;6.32;;
63050;SDS011;49136;47.416;19.402;2023-05-10T07:31:24;14.55;;;7.70;;
63050;SDS011;49136;47.416;19.402;2023-05-10T07:33:50;12.00;;;6.80;;
63050;SDS011;49136;47.416;19.402;2023-05-10T07:36:15;18.52;;;6.38;;
63050;SDS011;49136;47.416;19.402;2023-05-10T07:38:40;12.20;;;7.20;;
63050;SDS011;49136;47.416;19.402;2023-05-10T07:41:06;14.00;;;6.22;;
63050;SDS011;49136;47.416;19.402;2023-05-10T07:43:31;10.63;;;6.05;;
63050;SDS011;49136;47.416;19.402;2023-05-10T07:45:57;15.00;;;6.07;;
63050;SDS011;49136;47.416;19.402;2023-05-10T07:48:24;11.20;;;5.32;;
63050;SDS011;49136;47.416;19.402;2023-05-10T07:50:50;13.52;;;6.85;;
63050;SDS011;49136;47.416;19.402;2023-05-10T07:53:15;11.50;;;6.65;;
63050;SDS011;49136;47.416;19.402;2023-05-10T07:55:41;13.75;;;7.78;;
63050;SDS011;49136;47.416;19.402;2023-05-10T07:58:07;11.85;;;6.30;;
63050;SDS011;49136;47.416;19.402;2023-05-10T08:00:32;12.48;;;6.30;;
63050;SDS011;49136;47.416;19.402;2023-05-10T08:02:59;10.68;;;6.53;;
63050;SDS011;49136;47.416;19.402;2023-05-10T08:05:24;12.05;;;6.03;;
63050;SDS011;49136;47.416;19.402;2023-05-10T08:07:49;12.93;;;6.63;;
63050;SDS011;49136;47.416;19.402;2023-05-10T08:10:15;11.13;;;6.50;;
63050;SDS011;49136;47.416;19.402;2023-05-10T08:12:41;13.05;;;6.57;;
63050;SDS011;49136;47.416;19.402;2023-05-10T08:15:07;15.20;;;6.43;;
63050;SDS011;49136;47.416;19.402;2023-05-10T08:17:33;18.15;;;7.22;;
63050;SDS011;49136;47.416;19.402;2023-05-10T08:19:59;14.02;;;6.63;;
63050;SDS011;49136;47.416;19.402;2023-05-10T08:22:24;10.65;;;6.07;;
63050;SDS011;49136;47.416;19.402;2023-05-10T08:24:50;12.75;;;6.75;;
63050;SDS011;49136;47.416;19.402;2023-05-10T08:27:15;11.30;;;6.60;;
63050;SDS011;49136;47.416;19.402;2023-05-10T08:29:41;13.63;;;6.03;;
63050;SDS011;49136;47.416;19.402;2023-05-10T08:32:06;12.10;;;6.35;;
63050;SDS011;49136;47.416;19.402;2023-05-10T08:34:32;11.63;;;6.28;;
63050;SDS011;49136;47.416;19.402;2023-05-10T08:36:58;11.55;;;6.13;;
63050;SDS011;49136;47.416;19.402;2023-05-10T08:39:23;11.63;;;6.30;;
63050;SDS011;49136;47.416;19.402;2023-05-10T08:41:48;9.63;;;5.80;;
63050;SDS011;49136;47.416;19.402;2023-05-10T08:44:17;9.70;;;6.35;;
63050;SDS011;49136;47.416;19.402;2023-05-10T08:46:45;15.70;;;6.88;;
63050;SDS011;49136;47.416;19.402;2023-05-10T08:49:13;9.63;;;5.88;;
63050;SDS011;49136;47.416;19.402;2023-05-10T08:51:43;11.10;;;6.05;;
63050;SDS011;49136;47.416;19.402;2023-05-10T08:54:12;11.95;;;5.45;;
63050;SDS011;49136;47.416;19.402;2023-05-10T08:56:38;9.55;;;5.90;;
63050;SDS011;49136;47.416;19.402;2023-05-10T08:59:03;12.98;;;6.72;;
63050;SDS011;49136;47.416;19.402;2023-05-10T09:01:29;10.45;;;5.82;;
63050;SDS011;49136;47.416;19.402;2023-05-10T09:03:57;12.80;;;5.20;;
63050;SDS011;49136;47.416;19.402;2023-05-10T09:06:23;13.52;;;6.35;;
63050;SDS011;49136;47.416;19.402;2023-05-10T09:08:49;11.20;;;5.85;;
63050;SDS011;49136;47.416;19.402;2023-05-10T09:11:15;9.77;;;6.25;;
63050;SDS011;49136;47.416;19.402;2023-05-10T09:13:41;13.50;;;5.40;;
63050;SDS011;49136;47.416;19.402;2023-05-10T09:16:08;7.03;;;4.70;;
63050;SDS011;49136;47.416;19.402;2023-05-10T09:18:34;8.73;;;5.07;;
63050;SDS011;49136;47.416;19.402;2023-05-10T09:20:59;14.77;;;5.35;;
63050;SDS011;49136;47.416;19.402;2023-05-10T09:23:25;14.60;;;5.40;;
63050;SDS011;49136;47.416;19.402;2023-05-10T09:26:03;5.90;;;4.00;;
63050;SDS011;49136;47.416;19.402;2023-05-10T09:28:33;10.80;;;4.40;;
63050;SDS011;49136;47.416;19.402;2023-05-10T09:31:00;11.90;;;4.05;;
63050;SDS011;49136;47.416;19.402;2023-05-10T09:33:25;17.15;;;4.30;;
63050;SDS011;49136;47.416;19.402;2023-05-10T09:35:51;9.63;;;4.82;;
63050;SDS011;49136;47.416;19.402;2023-05-10T09:38:18;17.48;;;4.53;;
63050;SDS011;49136;47.416;19.402;2023-05-10T09:40:50;11.88;;;4.18;;
63050;SDS011;49136;47.416;19.402;2023-05-10T09:43:20;12.25;;;5.10;;
63050;SDS011;49136;47.416;19.402;2023-05-10T09:45:47;8.15;;;4.13;;
63050;SDS011;49136;47.416;19.402;2023-05-10T09:48:14;10.60;;;3.80;;
63050;SDS011;49136;47.416;19.402;2023-05-10T09:50:40;6.25;;;3.70;;
63050;SDS011;49136;47.416;19.402;2023-05-10T09:53:06;7.38;;;4.38;;
63050;SDS011;49136;47.416;19.402;2023-05-10T10:00:34;10.55;;;3.55;;
63050;SDS011;49136;47.416;19.402;2023-05-10T10:03:01;6.87;;;4.00;;
63050;SDS011;49136;47.416;19.402;2023-05-10T10:07:59;8.98;;;4.32;;
63050;SDS011;49136;47.416;19.402;2023-05-10T10:10:26;10.25;;;3.85;;
63050;SDS011;49136;47.416;19.402;2023-05-10T10:12:53;8.27;;;3.67;;
63050;SDS011;49136;47.416;19.402;2023-05-10T10:15:22;6.47;;;3.75;;
63050;SDS011;49136;47.416;19.402;2023-05-10T10:17:48;7.22;;;3.72;;
63050;SDS011;49136;47.416;19.402;2023-05-10T10:20:15;7.18;;;3.60;;
63050;SDS011;49136;47.416;19.402;2023-05-10T10:22:41;5.13;;;3.63;;
63050;SDS011;49136;47.416;19.402;2023-05-10T10:25:08;8.30;;;3.28;;
63050;SDS011;49136;47.416;19.402;2023-05-10T10:27:43;10.13;;;3.50;;
63050;SDS011;49136;47.416;19.402;2023-05-10T10:35:34;7.70;;;3.88;;
63050;SDS011;49136;47.416;19.402;2023-05-10T10:38:00;5.07;;;3.03;;
63050;SDS011;49136;47.416;19.402;2023-05-10T10:40:26;8.52;;;3.58;;
63050;SDS011;49136;47.416;19.402;2023-05-10T10:42:53;4.82;;;3.50;;
63050;SDS011;49136;47.416;19.402;2023-05-10T10:45:20;5.68;;;3.22;;
63050;SDS011;49136;47.416;19.402;2023-05-10T10:47:46;6.65;;;3.88;;
63050;SDS011;49136;47.416;19.402;2023-05-10T10:50:12;9.27;;;3.17;;
63050;SDS011;49136;47.416;19.402;2023-05-10T10:52:38;6.68;;;3.17;;
63050;SDS011;49136;47.416;19.402;2023-05-10T10:55:08;5.88;;;4.07;;
63050;SDS011;49136;47.416;19.402;2023-05-10T10:57:50;5.78;;;3.08;;
63050;SDS011;49136;47.416;19.402;2023-05-10T11:00:26;7.15;;;2.80;;
63050;SDS011;49136;47.416;19.402;2023-05-10T11:02:53;6.95;;;3.17;;
63050;SDS011;49136;47.416;19.402;2023-05-10T11:05:39;4.57;;;2.92;;
63050;SDS011;49136;47.416;19.402;2023-05-10T11:11:14;5.70;;;3.10;;
63050;SDS011;49136;47.416;19.402;2023-05-10T11:13:43;4.50;;;2.92;;
63050;SDS011;49136;47.416;19.402;2023-05-10T11:16:10;7.47;;;3.80;;
63050;SDS011;49136;47.416;19.402;2023-05-10T11:18:51;5.82;;;3.42;;
63050;SDS011;49136;47.416;19.402;2023-05-10T11:21:17;6.93;;;3.13;;
63050;SDS011;49136;47.416;19.402;2023-05-10T11:26:22;5.32;;;3.10;;
63050;SDS011;49136;47.416;19.402;2023-05-10T11:28:51;5.70;;;2.70;;
63050;SDS011;49136;47.416;19.402;2023-05-10T11:31:24;6.32;;;3.67;;
63050;SDS011;49136;47.416;19.402;2023-05-10T11:33:52;5.10;;;3.35;;
63050;SDS011;49136;47.416;19.402;2023-05-10T11:36:29;6.45;;;3.15;;
63050;SDS011;49136;47.416;19.402;2023-05-10T11:38:58;4.28;;;2.97;;
63050;SDS011;49136;47.416;19.402;2023-05-10T11:41:23;4.78;;;3.17;;
63050;SDS011;49136;47.416;19.402;2023-05-10T11:43:50;7.15;;;3.60;;
63050;SDS011;49136;47.416;19.402;2023-05-10T11:46:18;4.97;;;2.67;;
63050;SDS011;49136;47.416;19.402;2023-05-10T11:51:24;4.97;;;2.70;;
63050;SDS011;49136;47.416;19.402;2023-05-10T11:53:50;4.45;;;2.78;;
63050;SDS011;49136;47.416;19.402;2023-05-10T11:56:18;3.90;;;3.00;;
63050;SDS011;49136;47.416;19.402;2023-05-10T11:58:45;8.93;;;2.80;;
63050;SDS011;49136;47.416;19.402;2023-05-10T12:01:16;6.03;;;2.53;;
63050;SDS011;49136;47.416;19.402;2023-05-10T12:03:42;5.35;;;2.30;;
63050;SDS011;49136;47.416;19.402;2023-05-10T12:06:07;4.43;;;2.47;;
63050;SDS011;49136;47.416;19.402;2023-05-10T12:08:33;3.90;;;2.33;;
63050;SDS011;49136;47.416;19.402;2023-05-10T12:11:05;3.67;;;2.70;;
63050;SDS011;49136;47.416;19.402;2023-05-10T12:13:32;5.05;;;2.67;;
63050;SDS011;49136;47.416;19.402;2023-05-10T12:16:11;5.57;;;2.78;;
63050;SDS011;49136;47.416;19.402;2023-05-10T12:18:39;5.85;;;2.40;;
63050;SDS011;49136;47.416;19.402;2023-05-10T12:21:06;4.30;;;2.22;;
63050;SDS011;49136;47.416;19.402;2023-05-10T12:23:31;12.27;;;2.45;;
63050;SDS011;49136;47.416;19.402;2023-05-10T12:26:01;3.88;;;2.20;;
63050;SDS011;49136;47.416;19.402;2023-05-10T12:28:29;5.00;;;2.33;;
63050;SDS011;49136;47.416;19.402;2023-05-10T12:30:56;4.03;;;2.25;;
63050;SDS011;49136;47.416;19.402;2023-05-10T12:33:22;3.13;;;1.98;;
63050;SDS011;49136;47.416;19.402;2023-05-10T12:35:49;5.75;;;1.90;;
63050;SDS011;49136;47.416;19.402;2023-05-10T12:38:26;2.97;;;2.13;;
63050;SDS011;49136;47.416;19.402;2023-05-10T12:40:59;5.32;;;2.45;;
63050;SDS011;49136;47.416;19.402;2023-05-10T12:43:26;3.50;;;2.47;;
63050;SDS011;49136;47.416;19.402;2023-05-10T12:45:51;6.07;;;2.83;;
63050;SDS011;49136;47.416;19.402;2023-05-10T12:48:17;8.88;;;2.85;;
63050;SDS011;49136;47.416;19.402;2023-05-10T12:50:43;7.65;;;2.40;;
63050;SDS011;49136;47.416;19.402;2023-05-10T12:53:08;3.50;;;2.10;;
63050;SDS011;49136;47.416;19.402;2023-05-10T12:55:34;5.43;;;2.72;;
63050;SDS011;49136;47.416;19.402;2023-05-10T12:57:59;2.70;;;2.22;;
63050;SDS011;49136;47.416;19.402;2023-05-10T13:00:25;3.05;;;2.13;;
63050;SDS011;49136;47.416;19.402;2023-05-10T13:02:50;6.32;;;2.10;;
63050;SDS011;49136;47.416;19.402;2023-05-10T13:05:16;2.92;;;1.92;;
63050;SDS011;49136;47.416;19.402;2023-05-10T13:07:41;3.50;;;2.17;;
63050;SDS011;49136;47.416;19.402;2023-05-10T13:10:08;5.30;;;1.90;;
63050;SDS011;49136;47.416;19.402;2023-05-10T13:12:35;3.95;;;2.40;;
63050;SDS011;49136;47.416;19.402;2023-05-10T13:15:00;3.38;;;2.38;;
63050;SDS011;49136;47.416;19.402;2023-05-10T13:17:26;10.05;;;2.28;;
63050;SDS011;49136;47.416;19.402;2023-05-10T13:19:51;3.53;;;2.10;;
63050;SDS011;49136;47.416;19.402;2023-05-10T13:22:16;9.15;;;2.50;;
63050;SDS011;49136;47.416;19.402;2023-05-10T13:24:42;4.35;;;2.00;;
63050;SDS011;49136;47.416;19.402;2023-05-10T13:27:08;4.55;;;2.08;;
63050;SDS011;49136;47.416;19.402;2023-05-10T13:29:33;2.55;;;1.77;;
63050;SDS011;49136;47.416;19.402;2023-05-10T13:31:58;13.10;;;2.90;;
63050;SDS011;49136;47.416;19.402;2023-05-10T13:34:24;2.30;;;1.83;;
63050;SDS011;49136;47.416;19.402;2023-05-10T13:36:49;4.30;;;1.77;;
63050;SDS011;49136;47.416;19.402;2023-05-10T13:39:15;3.97;;;2.15;;
63050;SDS011;49136;47.416;19.402;2023-05-10T13:41:43;4.45;;;2.03;;
63050;SDS011;49136;47.416;19.402;2023-05-10T13:44:11;2.45;;;1.73;;
63050;SDS011;49136;47.416;19.402;2023-05-10T13:46:38;2.20;;;1.50;;
63050;SDS011;49136;47.416;19.402;2023-05-10T13:49:03;3.17;;;1.75;;
63050;SDS011;49136;47.416;19.402;2023-05-10T13:51:29;2.58;;;1.77;;
63050;SDS011;49136;47.416;19.402;2023-05-10T13:53:56;4.13;;;2.00;;
63050;SDS011;49136;47.416;19.402;2023-05-10T13:56:22;4.80;;;2.03;;
63050;SDS011;49136;47.416;19.402;2023-05-10T13:58:48;4.88;;;1.77;;
63050;SDS011;49136;47.416;19.402;2023-05-10T14:01:13;3.47;;;1.83;;
63050;SDS011;49136;47.416;19.402;2023-05-10T14:03:39;4.32;;;2.30;;
63050;SDS011;49136;47.416;19.402;2023-05-10T14:06:04;4.05;;;1.92;;
63050;SDS011;49136;47.416;19.402;2023-05-10T14:08:32;3.25;;;1.80;;
63050;SDS011;49136;47.416;19.402;2023-05-10T14:10:57;2.63;;;1.80;;
63050;SDS011;49136;47.416;19.402;2023-05-10T14:13:23;7.10;;;1.90;;
63050;SDS011;49136;47.416;19.402;2023-05-10T14:15:49;10.05;;;1.77;;
63050;SDS011;49136;47.416;19.402;2023-05-10T14:18:15;4.20;;;1.80;;
63050;SDS011;49136;47.416;19.402;2023-05-10T14:20:40;4.03;;;2.13;;
63050;SDS011;49136;47.416;19.402;2023-05-10T14:23:05;16.70;;;4.45;;
63050;SDS011;49136;47.416;19.402;2023-05-10T14:25:31;2.97;;;1.80;;
63050;SDS011;49136;47.416;19.402;2023-05-10T14:27:56;3.70;;;2.17;;
63050;SDS011;49136;47.416;19.402;2023-05-10T14:30:22;3.75;;;1.70;;
63050;SDS011;49136;47.416;19.402;2023-05-10T14:32:47;2.25;;;1.52;;
63050;SDS011;49136;47.416;19.402;2023-05-10T14:35:13;2.15;;;1.50;;
63050;SDS011;49136;47.416;19.402;2023-05-10T14:37:38;2.35;;;1.50;;
63050;SDS011;49136;47.416;19.402;2023-05-10T14:40:04;2.55;;;1.80;;
63050;SDS011;49136;47.416;19.402;2023-05-10T14:42:31;2.55;;;1.42;;
63050;SDS011;49136;47.416;19.402;2023-05-10T14:44:57;3.15;;;1.30;;
63050;SDS011;49136;47.416;19.402;2023-05-10T14:47:22;3.15;;;1.88;;
63050;SDS011;49136;47.416;19.402;2023-05-10T14:49:47;6.82;;;2.03;;
63050;SDS011;49136;47.416;19.402;2023-05-10T14:52:13;8.43;;;1.65;;
63050;SDS011;49136;47.416;19.402;2023-05-10T14:54:39;2.95;;;1.60;;
63050;SDS011;49136;47.416;19.402;2023-05-10T14:57:06;2.92;;;1.65;;
63050;SDS011;49136;47.416;19.402;2023-05-10T14:59:31;3.25;;;2.08;;
63050;SDS011;49136;47.416;19.402;2023-05-10T15:01:57;2.47;;;1.95;;
63050;SDS011;49136;47.416;19.402;2023-05-10T15:04:22;2.75;;;1.75;;
63050;SDS011;49136;47.416;19.402;2023-05-10T15:06:48;4.40;;;2.05;;